sensor_id;sensor_type;location;lat;lon;timestamp;pressure;altitude;pressure_sealevel;temperature;humidity
11448;BME280;43755;49.736;8.734;2023-06-19T00:00:06;97337.03;;;21.55;70.88
11448;BME280;43755;49.736;8.734;2023-06-19T00:02:14;97335.09;;;21.47;68.26
11448;BME280;43755;49.736;8.734;2023-06-19T00:04:15;97332.53;;;21.46;69.19
11448;BME280;43755;49.736;8.734;2023-06-19T00:06:17;97334.09;;;21.48;71.28
11448;BME280;43755;49.736;8.734;2023-06-19T00:08:18;97335.94;;;21.48;71.16
11448;BME280;43755;49.736;8.734;2023-06-19T00:10:19;97342.84;;;21.50;70.86
11448;BME280;43755;49.736;8.734;2023-06-19T00:12:21;97345.72;;;21.49;69.97
11448;BME280;43755;49.736;8.734;2023-06-19T00:14:22;97336.09;;;21.46;69.11
11448;BME280;43755;49.736;8.734;2023-06-19T00:16:24;97346.84;;;21.46;69.40
11448;BME280;43755;49.736;8.734;2023-06-19T00:18:27;97337.78;;;21.47;70.87
11448;BME280;43755;49.736;8.734;2023-06-19T00:20:29;97334.09;;;21.48;69.57
11448;BME280;43755;49.736;8.734;2023-06-19T00:22:30;97334.09;;;21.48;67.83
11448;BME280;43755;49.736;8.734;2023-06-19T00:24:31;97330.41;;;21.49;68.18
11448;BME280;43755;49.736;8.734;2023-06-19T00:26:33;97336.66;;;21.50;66.69
11448;BME280;43755;49.736;8.734;2023-06-19T00:28:34;97351.97;;;21.40;69.81
11448;BME280;43755;49.736;8.734;2023-06-19T00:30:39;97350.38;;;21.19;68.67
11448;BME280;43755;49.736;8.734;2023-06-19T00:32:40;97346.41;;;21.14;68.20
11448;BME280;43755;49.736;8.734;2023-06-19T00:34:48;97340.88;;;21.15;70.21
11448;BME280;43755;49.736;8.734;2023-06-19T00:36:50;97337.63;;;21.12;70.71
11448;BME280;43755;49.736;8.734;2023-06-19T00:38:51;97338.59;;;21.11;67.51
11448;BME280;43755;49.736;8.734;2023-06-19T00:40:53;97344.97;;;21.10;66.94
11448;BME280;43755;49.736;8.734;2023-06-19T00:42:54;97342.59;;;20.97;61.58
11448;BME280;43755;49.736;8.734;2023-06-19T00:44:56;97341.34;;;20.92;57.40
11448;BME280;43755;49.736;8.734;2023-06-19T00:46:58;97346.44;;;20.95;60.92
11448;BME280;43755;49.736;8.734;2023-06-19T00:49:01;97341.66;;;20.89;67.09
11448;BME280;43755;49.736;8.734;2023-06-19T00:51:04;97342.09;;;20.84;67.43
11448;BME280;43755;49.736;8.734;2023-06-19T00:53:06;97343.94;;;20.74;68.44
11448;BME280;43755;49.736;8.734;2023-06-19T00:55:08;97339.97;;;20.68;57.52
11448;BME280;43755;49.736;8.734;2023-06-19T00:57:10;97339.25;;;20.76;60.73
11448;BME280;43755;49.736;8.734;2023-06-19T00:59:15;97348.31;;;20.75;62.04
11448;BME280;43755;49.736;8.734;2023-06-19T01:01:17;97345.50;;;20.76;59.62
11448;BME280;43755;49.736;8.734;2023-06-19T01:03:19;97347.06;;;20.79;58.02
11448;BME280;43755;49.736;8.734;2023-06-19T01:05:20;97348.72;;;20.90;54.29
11448;BME280;43755;49.736;8.734;2023-06-19T01:07:29;97348.41;;;20.93;50.49
11448;BME280;43755;49.736;8.734;2023-06-19T01:09:38;97340.75;;;20.98;48.89
11448;BME280;43755;49.736;8.734;2023-06-19T01:11:44;97343.00;;;21.12;47.78
11448;BME280;43755;49.736;8.734;2023-06-19T01:13:50;97351.69;;;21.43;46.81
11448;BME280;43755;49.736;8.734;2023-06-19T01:15:54;97346.97;;;21.54;46.51
11448;BME280;43755;49.736;8.734;2023-06-19T01:17:58;97333.19;;;21.57;46.60
11448;BME280;43755;49.736;8.734;2023-06-19T01:20:00;97340.41;;;21.57;46.74
11448;BME280;43755;49.736;8.734;2023-06-19T01:22:08;97344.66;;;21.59;46.76
11448;BME280;43755;49.736;8.734;2023-06-19T01:24:09;97344.53;;;21.61;46.74
11448;BME280;43755;49.736;8.734;2023-06-19T01:26:11;97340.78;;;21.72;47.04
11448;BME280;43755;49.736;8.734;2023-06-19T01:28:13;97342.50;;;21.63;47.67
11448;BME280;43755;49.736;8.734;2023-06-19T01:30:15;97344.53;;;21.61;47.51
11448;BME280;43755;49.736;8.734;2023-06-19T01:32:21;97340.97;;;21.60;47.76
11448;BME280;43755;49.736;8.734;2023-06-19T01:34:25;97349.06;;;21.60;48.43
11448;BME280;43755;49.736;8.734;2023-06-19T01:36:28;97344.94;;;21.56;48.87
11448;BME280;43755;49.736;8.734;2023-06-19T01:38:33;97355.72;;;21.56;49.22
11448;BME280;43755;49.736;8.734;2023-06-19T01:40:36;97359.72;;;21.52;49.98
11448;BME280;43755;49.736;8.734;2023-06-19T01:42:39;97360.31;;;21.46;50.86
11448;BME280;43755;49.736;8.734;2023-06-19T01:44:41;97367.25;;;21.49;51.44
11448;BME280;43755;49.736;8.734;2023-06-19T01:46:42;97368.50;;;21.54;51.50
11448;BME280;43755;49.736;8.734;2023-06-19T01:48:44;97367.63;;;21.54;51.71
11448;BME280;43755;49.736;8.734;2023-06-19T01:50:46;97380.53;;;21.50;52.38
11448;BME280;43755;49.736;8.734;2023-06-19T01:52:48;97381.53;;;21.49;52.73
11448;BME280;43755;49.736;8.734;2023-06-19T01:54:50;97379.00;;;21.48;52.99
11448;BME280;43755;49.736;8.734;2023-06-19T01:56:52;97389.63;;;21.40;53.87
11448;BME280;43755;49.736;8.734;2023-06-19T01:58:53;97392.25;;;21.32;55.00
11448;BME280;43755;49.736;8.734;2023-06-19T02:00:55;97396.19;;;21.28;55.99
11448;BME280;43755;49.736;8.734;2023-06-19T02:02:57;97399.47;;;21.21;57.13
11448;BME280;43755;49.736;8.734;2023-06-19T02:04:58;97390.69;;;21.10;58.81
11448;BME280;43755;49.736;8.734;2023-06-19T02:06:59;97397.22;;;21.07;59.57
11448;BME280;43755;49.736;8.734;2023-06-19T02:09:01;97396.94;;;21.01;60.19
11448;BME280;43755;49.736;8.734;2023-06-19T02:11:04;97396.69;;;20.94;61.59
11448;BME280;43755;49.736;8.734;2023-06-19T02:13:06;97403.91;;;20.84;63.42
11448;BME280;43755;49.736;8.734;2023-06-19T02:15:08;97410.56;;;20.80;64.54
11448;BME280;43755;49.736;8.734;2023-06-19T02:17:10;97407.63;;;20.73;64.82
11448;BME280;43755;49.736;8.734;2023-06-19T02:19:11;97404.94;;;20.73;65.63
11448;BME280;43755;49.736;8.734;2023-06-19T02:21:13;97419.34;;;20.72;65.63
11448;BME280;43755;49.736;8.734;2023-06-19T02:23:14;97412.41;;;20.70;66.01
11448;BME280;43755;49.736;8.734;2023-06-19T02:25:16;97412.84;;;20.65;66.03
11448;BME280;43755;49.736;8.734;2023-06-19T02:27:18;97422.47;;;20.77;66.09
11448;BME280;43755;49.736;8.734;2023-06-19T02:29:20;97415.97;;;20.61;66.82
11448;BME280;43755;49.736;8.734;2023-06-19T02:31:22;97421.75;;;20.56;67.94
11448;BME280;43755;49.736;8.734;2023-06-19T02:33:23;97432.78;;;20.53;68.36
11448;BME280;43755;49.736;8.734;2023-06-19T02:35:25;97429.38;;;20.51;68.54
11448;BME280;43755;49.736;8.734;2023-06-19T02:37:27;97428.25;;;20.54;68.69
11448;BME280;43755;49.736;8.734;2023-06-19T02:39:29;97431.09;;;20.52;69.04
11448;BME280;43755;49.736;8.734;2023-06-19T02:41:31;97433.06;;;20.50;68.85
11448;BME280;43755;49.736;8.734;2023-06-19T02:43:34;97431.22;;;20.51;68.98
11448;BME280;43755;49.736;8.734;2023-06-19T02:45:35;97431.22;;;20.51;68.68
11448;BME280;43755;49.736;8.734;2023-06-19T02:47:36;97436.75;;;20.49;68.81
11448;BME280;43755;49.736;8.734;2023-06-19T02:49:38;97432.50;;;20.47;68.89
11448;BME280;43755;49.736;8.734;2023-06-19T02:51:39;97444.53;;;20.42;69.10
11448;BME280;43755;49.736;8.734;2023-06-19T02:53:41;97449.72;;;20.44;69.80
11448;BME280;43755;49.736;8.734;2023-06-19T02:55:43;97448.63;;;20.37;70.23
11448;BME280;43755;49.736;8.734;2023-06-19T02:57:45;97446.91;;;20.36;69.90
11448;BME280;43755;49.736;8.734;2023-06-19T02:59:49;97438.72;;;20.37;69.90
11448;BME280;43755;49.736;8.734;2023-06-19T03:01:50;97447.22;;;20.42;70.00
11448;BME280;43755;49.736;8.734;2023-06-19T03:03:52;97450.03;;;20.41;70.40
11448;BME280;43755;49.736;8.734;2023-06-19T03:05:53;97439.84;;;20.44;70.34
11448;BME280;43755;49.736;8.734;2023-06-19T03:07:54;97453.69;;;20.40;70.77
11448;BME280;43755;49.736;8.734;2023-06-19T03:09:56;97450.75;;;20.43;70.72
11448;BME280;43755;49.736;8.734;2023-06-19T03:11:56;97452.41;;;20.44;70.63
11448;BME280;43755;49.736;8.734;2023-06-19T03:13:57;97448.91;;;20.53;70.37
11448;BME280;43755;49.736;8.734;2023-06-19T03:16:01;97450.31;;;20.57;69.96
11448;BME280;43755;49.736;8.734;2023-06-19T03:18:03;97454.16;;;20.55;69.88
11448;BME280;43755;49.736;8.734;2023-06-19T03:20:07;97453.84;;;20.58;69.62
11448;BME280;43755;49.736;8.734;2023-06-19T03:22:12;97458.13;;;20.60;69.69
11448;BME280;43755;49.736;8.734;2023-06-19T03:24:13;97453.16;;;20.56;69.96
11448;BME280;43755;49.736;8.734;2023-06-19T03:26:15;97467.28;;;20.48;71.12
11448;BME280;43755;49.736;8.734;2023-06-19T03:28:16;97473.22;;;20.42;72.06
11448;BME280;43755;49.736;8.734;2023-06-19T03:30:17;97474.50;;;20.38;73.10
11448;BME280;43755;49.736;8.734;2023-06-19T03:32:20;97476.25;;;20.28;74.16
11448;BME280;43755;49.736;8.734;2023-06-19T03:34:22;97474.72;;;20.25;74.27
11448;BME280;43755;49.736;8.734;2023-06-19T03:36:23;97474.44;;;20.28;74.41
11448;BME280;43755;49.736;8.734;2023-06-19T03:38:24;97473.03;;;20.24;75.11
11448;BME280;43755;49.736;8.734;2023-06-19T03:40:26;97471.03;;;20.26;74.83
11448;BME280;43755;49.736;8.734;2023-06-19T03:42:28;97476.25;;;20.28;75.05
11448;BME280;43755;49.736;8.734;2023-06-19T03:44:29;97478.09;;;20.27;75.70
11448;BME280;43755;49.736;8.734;2023-06-19T03:46:30;97480.41;;;20.32;75.95
11448;BME280;43755;49.736;8.734;2023-06-19T03:48:33;97487.59;;;20.31;76.35
11448;BME280;43755;49.736;8.734;2023-06-19T03:50:34;97489.91;;;20.36;77.58
11448;BME280;43755;49.736;8.734;2023-06-19T03:52:37;97489.59;;;20.39;77.89
11448;BME280;43755;49.736;8.734;2023-06-19T03:54:38;97498.09;;;20.44;77.56
11448;BME280;43755;49.736;8.734;2023-06-19T03:56:39;97496.56;;;20.51;77.89
11448;BME280;43755;49.736;8.734;2023-06-19T03:58:41;97499.09;;;20.53;78.75
11448;BME280;43755;49.736;8.734;2023-06-19T04:00:42;97500.22;;;20.50;79.36
11448;BME280;43755;49.736;8.734;2023-06-19T04:02:44;97502.66;;;20.53;80.18
11448;BME280;43755;49.736;8.734;2023-06-19T04:04:47;97505.75;;;20.49;81.98
11448;BME280;43755;49.736;8.734;2023-06-19T04:06:49;97501.25;;;20.49;82.77
11448;BME280;43755;49.736;8.734;2023-06-19T04:08:52;97502.91;;;20.50;83.36
11448;BME280;43755;49.736;8.734;2023-06-19T04:10:53;97499.53;;;20.48;83.38
11448;BME280;43755;49.736;8.734;2023-06-19T04:12:54;97503.63;;;20.52;84.05
11448;BME280;43755;49.736;8.734;2023-06-19T04:14:56;97500.38;;;20.49;85.50
11448;BME280;43755;49.736;8.734;2023-06-19T04:16:58;97512.84;;;20.50;86.13
11448;BME280;43755;49.736;8.734;2023-06-19T04:18:59;97510.00;;;20.51;86.28
11448;BME280;43755;49.736;8.734;2023-06-19T04:21:02;97509.28;;;20.49;87.45
11448;BME280;43755;49.736;8.734;2023-06-19T04:23:03;97513.66;;;20.50;88.80
11448;BME280;43755;49.736;8.734;2023-06-19T04:25:06;97520.19;;;20.57;89.13
11448;BME280;43755;49.736;8.734;2023-06-19T04:27:07;97521.31;;;20.55;89.44
11448;BME280;43755;49.736;8.734;2023-06-19T04:29:09;97521.63;;;20.61;89.51
11448;BME280;43755;49.736;8.734;2023-06-19T04:31:16;97527.69;;;20.63;88.82
11448;BME280;43755;49.736;8.734;2023-06-19T04:33:19;97531.53;;;20.61;89.67
11448;BME280;43755;49.736;8.734;2023-06-19T04:35:21;97534.78;;;20.64;89.50
11448;BME280;43755;49.736;8.734;2023-06-19T04:37:25;97538.59;;;20.71;89.20
11448;BME280;43755;49.736;8.734;2023-06-19T04:39:26;97536.91;;;20.70;89.01
11448;BME280;43755;49.736;8.734;2023-06-19T04:41:27;97537.31;;;20.75;89.84
11448;BME280;43755;49.736;8.734;2023-06-19T04:43:29;97538.00;;;20.68;90.08
11448;BME280;43755;49.736;8.734;2023-06-19T04:45:30;97545.94;;;20.69;90.42
11448;BME280;43755;49.736;8.734;2023-06-19T04:47:32;97534.50;;;20.77;90.47
11448;BME280;43755;49.736;8.734;2023-06-19T04:49:33;97541.88;;;20.84;90.22
11448;BME280;43755;49.736;8.734;2023-06-19T04:51:34;97537.63;;;20.82;90.68
11448;BME280;43755;49.736;8.734;2023-06-19T04:53:37;97545.69;;;20.82;90.89
11448;BME280;43755;49.736;8.734;2023-06-19T04:55:39;97541.72;;;20.86;91.76
11448;BME280;43755;49.736;8.734;2023-06-19T04:57:40;97544.13;;;20.89;92.21
11448;BME280;43755;49.736;8.734;2023-06-19T04:59:42;97542.44;;;20.88;93.97
11448;BME280;43755;49.736;8.734;2023-06-19T05:01:44;97540.88;;;20.85;92.83
11448;BME280;43755;49.736;8.734;2023-06-19T05:03:46;97547.69;;;20.90;93.09
11448;BME280;43755;49.736;8.734;2023-06-19T05:05:47;97545.69;;;21.01;92.98
11448;BME280;43755;49.736;8.734;2023-06-19T05:07:48;97545.69;;;21.59;89.02
11448;BME280;43755;49.736;8.734;2023-06-19T05:09:51;97554.38;;;22.36;83.27
11448;BME280;43755;49.736;8.734;2023-06-19T05:11:52;97552.09;;;22.59;80.38
11448;BME280;43755;49.736;8.734;2023-06-19T05:13:54;97546.50;;;22.70;79.93
11448;BME280;43755;49.736;8.734;2023-06-19T05:15:55;97554.00;;;22.76;79.48
11448;BME280;43755;49.736;8.734;2023-06-19T05:17:57;97564.00;;;22.66;79.98
11448;BME280;43755;49.736;8.734;2023-06-19T05:19:58;97564.47;;;22.52;82.38
11448;BME280;43755;49.736;8.734;2023-06-19T05:22:00;97559.84;;;22.44;83.88
11448;BME280;43755;49.736;8.734;2023-06-19T05:24:01;97561.28;;;22.39;82.82
11448;BME280;43755;49.736;8.734;2023-06-19T05:26:04;97558.72;;;22.10;85.39
11448;BME280;43755;49.736;8.734;2023-06-19T05:28:05;97552.59;;;22.18;86.12
11448;BME280;43755;49.736;8.734;2023-06-19T05:30:08;97555.28;;;22.18;85.86
11448;BME280;43755;49.736;8.734;2023-06-19T05:32:09;97555.09;;;22.29;87.29
11448;BME280;43755;49.736;8.734;2023-06-19T05:34:11;97550.22;;;22.42;84.91
11448;BME280;43755;49.736;8.734;2023-06-19T05:36:12;97554.63;;;22.43;84.28
11448;BME280;43755;49.736;8.734;2023-06-19T05:38:13;97560.84;;;22.43;85.42
11448;BME280;43755;49.736;8.734;2023-06-19T05:40:15;97559.69;;;22.46;83.47
11448;BME280;43755;49.736;8.734;2023-06-19T05:42:18;97567.00;;;22.36;85.10
11448;BME280;43755;49.736;8.734;2023-06-19T05:44:19;97571.00;;;22.32;86.14
11448;BME280;43755;49.736;8.734;2023-06-19T05:46:21;97564.84;;;22.39;86.66
11448;BME280;43755;49.736;8.734;2023-06-19T05:48:22;97568.47;;;22.21;86.36
11448;BME280;43755;49.736;8.734;2023-06-19T05:50:24;97566.25;;;22.43;88.43
11448;BME280;43755;49.736;8.734;2023-06-19T05:52:25;97575.59;;;22.49;86.54
11448;BME280;43755;49.736;8.734;2023-06-19T05:54:27;97572.63;;;22.42;84.79
11448;BME280;43755;49.736;8.734;2023-06-19T05:56:28;97574.72;;;22.49;86.12
11448;BME280;43755;49.736;8.734;2023-06-19T05:58:31;97570.19;;;22.49;85.85
11448;BME280;43755;49.736;8.734;2023-06-19T06:00:32;97575.66;;;22.57;87.56
11448;BME280;43755;49.736;8.734;2023-06-19T06:02:33;97572.78;;;22.41;85.60
11448;BME280;43755;49.736;8.734;2023-06-19T06:04:35;97573.81;;;22.58;88.00
11448;BME280;43755;49.736;8.734;2023-06-19T06:06:36;97570.72;;;22.53;87.47
11448;BME280;43755;49.736;8.734;2023-06-19T06:08:38;97578.34;;;22.57;86.26
11448;BME280;43755;49.736;8.734;2023-06-19T06:10:39;97587.09;;;22.69;86.91
11448;BME280;43755;49.736;8.734;2023-06-19T06:12:41;97578.44;;;22.75;86.38
11448;BME280;43755;49.736;8.734;2023-06-19T06:14:44;97568.97;;;22.89;84.85
11448;BME280;43755;49.736;8.734;2023-06-19T06:16:46;97584.09;;;22.99;83.22
11448;BME280;43755;49.736;8.734;2023-06-19T06:18:47;97585.28;;;23.14;83.16
11448;BME280;43755;49.736;8.734;2023-06-19T06:20:48;97587.97;;;22.97;82.24
11448;BME280;43755;49.736;8.734;2023-06-19T06:22:50;97592.88;;;23.01;85.08
11448;BME280;43755;49.736;8.734;2023-06-19T06:24:51;97591.41;;;22.89;82.39
11448;BME280;43755;49.736;8.734;2023-06-19T06:26:54;97585.16;;;22.89;85.23
11448;BME280;43755;49.736;8.734;2023-06-19T06:28:56;97585.44;;;22.85;85.63
11448;BME280;43755;49.736;8.734;2023-06-19T06:30:58;97588.34;;;22.74;87.20
11448;BME280;43755;49.736;8.734;2023-06-19T06:33:00;97593.16;;;22.80;86.04
11448;BME280;43755;49.736;8.734;2023-06-19T06:35:01;97596.31;;;22.76;85.93
11448;BME280;43755;49.736;8.734;2023-06-19T06:37:03;97591.47;;;22.79;89.50
11448;BME280;43755;49.736;8.734;2023-06-19T06:39:04;97591.34;;;22.99;87.91
11448;BME280;43755;49.736;8.734;2023-06-19T06:41:06;97600.28;;;22.99;86.18
11448;BME280;43755;49.736;8.734;2023-06-19T06:43:08;97596.34;;;22.94;85.94
11448;BME280;43755;49.736;8.734;2023-06-19T06:45:10;97598.75;;;22.97;87.03
11448;BME280;43755;49.736;8.734;2023-06-19T06:47:13;97590.34;;;23.00;87.57
11448;BME280;43755;49.736;8.734;2023-06-19T06:49:14;97594.34;;;22.96;86.89
11448;BME280;43755;49.736;8.734;2023-06-19T06:51:17;97595.41;;;22.85;87.71
11448;BME280;43755;49.736;8.734;2023-06-19T06:53:18;97605.75;;;22.90;91.13
11448;BME280;43755;49.736;8.734;2023-06-19T06:55:20;97601.03;;;22.92;88.60
11448;BME280;43755;49.736;8.734;2023-06-19T06:57:21;97606.13;;;22.95;86.09
11448;BME280;43755;49.736;8.734;2023-06-19T06:59:22;97603.66;;;22.83;87.00
11448;BME280;43755;49.736;8.734;2023-06-19T07:01:24;97595.81;;;23.08;85.61
11448;BME280;43755;49.736;8.734;2023-06-19T07:03:26;97599.38;;;23.08;86.45
11448;BME280;43755;49.736;8.734;2023-06-19T07:05:30;97602.00;;;23.18;86.41
11448;BME280;43755;49.736;8.734;2023-06-19T07:07:31;97597.75;;;23.33;83.09
11448;BME280;43755;49.736;8.734;2023-06-19T07:09:32;97600.44;;;23.33;81.87
11448;BME280;43755;49.736;8.734;2023-06-19T07:11:34;97607.47;;;23.44;81.19
11448;BME280;43755;49.736;8.734;2023-06-19T07:13:35;97603.53;;;23.74;82.26
11448;BME280;43755;49.736;8.734;2023-06-19T07:15:37;97616.13;;;23.65;80.49
11448;BME280;43755;49.736;8.734;2023-06-19T07:17:38;97605.97;;;23.85;83.41
11448;BME280;43755;49.736;8.734;2023-06-19T07:19:41;97607.97;;;23.83;80.55
11448;BME280;43755;49.736;8.734;2023-06-19T07:21:43;97609.44;;;23.95;79.44
11448;BME280;43755;49.736;8.734;2023-06-19T07:23:45;97617.81;;;23.92;80.76
11448;BME280;43755;49.736;8.734;2023-06-19T07:25:48;97613.81;;;23.96;84.06
11448;BME280;43755;49.736;8.734;2023-06-19T07:27:49;97616.25;;;24.07;81.31
11448;BME280;43755;49.736;8.734;2023-06-19T07:29:50;97607.91;;;24.18;80.61
11448;BME280;43755;49.736;8.734;2023-06-19T07:31:52;97603.09;;;24.30;80.96
11448;BME280;43755;49.736;8.734;2023-06-19T07:33:54;97610.41;;;24.45;77.23
11448;BME280;43755;49.736;8.734;2023-06-19T07:35:57;97625.63;;;24.46;78.17
11448;BME280;43755;49.736;8.734;2023-06-19T07:37:58;97616.16;;;24.42;80.05
11448;BME280;43755;49.736;8.734;2023-06-19T07:39:59;97626.69;;;24.54;79.50
11448;BME280;43755;49.736;8.734;2023-06-19T07:42:01;97612.47;;;24.52;78.14
11448;BME280;43755;49.736;8.734;2023-06-19T07:44:02;97612.28;;;24.45;76.64
11448;BME280;43755;49.736;8.734;2023-06-19T07:46:04;97617.44;;;24.56;77.08
11448;BME280;43755;49.736;8.734;2023-06-19T07:48:05;97618.22;;;24.48;76.09
11448;BME280;43755;49.736;8.734;2023-06-19T07:50:08;97612.19;;;24.29;79.00
11448;BME280;43755;49.736;8.734;2023-06-19T07:52:10;97610.75;;;24.42;78.64
11448;BME280;43755;49.736;8.734;2023-06-19T07:54:12;97617.03;;;24.51;81.93
11448;BME280;43755;49.736;8.734;2023-06-19T07:56:13;97624.91;;;24.62;76.45
11448;BME280;43755;49.736;8.734;2023-06-19T07:58:15;97622.75;;;24.82;78.66
11448;BME280;43755;49.736;8.734;2023-06-19T08:00:17;97627.31;;;24.81;77.02
11448;BME280;43755;49.736;8.734;2023-06-19T08:02:18;97627.06;;;24.59;74.82
11448;BME280;43755;49.736;8.734;2023-06-19T08:04:20;97639.28;;;24.37;77.09
11448;BME280;43755;49.736;8.734;2023-06-19T08:06:21;97643.06;;;24.44;79.75
11448;BME280;43755;49.736;8.734;2023-06-19T08:08:24;97634.97;;;24.52;77.98
11448;BME280;43755;49.736;8.734;2023-06-19T08:10:25;97645.63;;;24.54;77.83
11448;BME280;43755;49.736;8.734;2023-06-19T08:12:27;97640.28;;;24.62;76.59
11448;BME280;43755;49.736;8.734;2023-06-19T08:14:28;97647.47;;;24.53;76.93
11448;BME280;43755;49.736;8.734;2023-06-19T08:16:29;97651.44;;;24.67;74.17
11448;BME280;43755;49.736;8.734;2023-06-19T08:18:31;97655.44;;;24.88;74.69
11448;BME280;43755;49.736;8.734;2023-06-19T08:20:32;97658.91;;;25.07;74.42
11448;BME280;43755;49.736;8.734;2023-06-19T08:22:34;97660.75;;;25.06;73.30
11448;BME280;43755;49.736;8.734;2023-06-19T08:24:36;97657.09;;;25.23;74.76
11448;BME280;43755;49.736;8.734;2023-06-19T08:26:40;97657.28;;;25.30;72.17
11448;BME280;43755;49.736;8.734;2023-06-19T08:28:41;97665.03;;;25.33;69.90
11448;BME280;43755;49.736;8.734;2023-06-19T08:30:44;97673.53;;;25.38;72.05
11448;BME280;43755;49.736;8.734;2023-06-19T08:32:46;97672.13;;;25.18;71.20
11448;BME280;43755;49.736;8.734;2023-06-19T08:34:48;97671.28;;;25.17;73.34
11448;BME280;43755;49.736;8.734;2023-06-19T08:36:49;97669.03;;;25.05;75.18
11448;BME280;43755;49.736;8.734;2023-06-19T08:38:51;97666.25;;;24.55;75.80
11448;BME280;43755;49.736;8.734;2023-06-19T08:40:54;97671.50;;;24.56;78.24
11448;BME280;43755;49.736;8.734;2023-06-19T08:42:56;97667.13;;;24.63;78.14
11448;BME280;43755;49.736;8.734;2023-06-19T08:44:57;97670.41;;;24.75;76.56
11448;BME280;43755;49.736;8.734;2023-06-19T08:46:59;97671.19;;;24.59;76.89
11448;BME280;43755;49.736;8.734;2023-06-19T08:49:00;97672.38;;;24.65;76.41
11448;BME280;43755;49.736;8.734;2023-06-19T08:51:02;97673.72;;;24.35;78.43
11448;BME280;43755;49.736;8.734;2023-06-19T08:53:04;97676.72;;;24.50;79.83
11448;BME280;43755;49.736;8.734;2023-06-19T08:55:06;97678.16;;;24.70;78.88
11448;BME280;43755;49.736;8.734;2023-06-19T08:57:09;97672.63;;;24.79;76.30
11448;BME280;43755;49.736;8.734;2023-06-19T08:59:12;97678.34;;;24.76;75.15
11448;BME280;43755;49.736;8.734;2023-06-19T09:01:17;97666.63;;;24.60;80.20
11448;BME280;43755;49.736;8.734;2023-06-19T09:03:20;97679.81;;;24.63;79.58
11448;BME280;43755;49.736;8.734;2023-06-19T09:05:21;97678.66;;;24.65;76.73
11448;BME280;43755;49.736;8.734;2023-06-19T09:07:23;97682.78;;;24.52;76.93
11448;BME280;43755;49.736;8.734;2023-06-19T09:09:25;97688.47;;;24.66;77.85
11448;BME280;43755;49.736;8.734;2023-06-19T09:11:28;97675.16;;;24.81;78.40
11448;BME280;43755;49.736;8.734;2023-06-19T09:13:31;97666.97;;;24.65;76.76
11448;BME280;43755;49.736;8.734;2023-06-19T09:15:36;97663.31;;;24.74;78.88
11448;BME280;43755;49.736;8.734;2023-06-19T09:17:37;97676.69;;;25.17;77.14
11448;BME280;43755;49.736;8.734;2023-06-19T09:19:47;97681.78;;;25.28;73.61
11448;BME280;43755;49.736;8.734;2023-06-19T09:21:48;97678.25;;;25.28;73.05
11448;BME280;43755;49.736;8.734;2023-06-19T09:23:50;97682.00;;;25.43;73.02
11448;BME280;43755;49.736;8.734;2023-06-19T09:25:52;97678.13;;;25.38;73.99
11448;BME280;43755;49.736;8.734;2023-06-19T09:27:55;97690.09;;;25.35;75.56
11448;BME280;43755;49.736;8.734;2023-06-19T09:29:58;97686.81;;;25.15;76.12
11448;BME280;43755;49.736;8.734;2023-06-19T09:32:00;97679.91;;;25.13;74.54
11448;BME280;43755;49.736;8.734;2023-06-19T09:34:01;97686.28;;;25.04;75.79
11448;BME280;43755;49.736;8.734;2023-06-19T09:36:04;97689.38;;;25.09;77.14
11448;BME280;43755;49.736;8.734;2023-06-19T09:38:07;97686.91;;;24.90;78.02
11448;BME280;43755;49.736;8.734;2023-06-19T09:40:09;97701.00;;;24.75;78.46
11448;BME280;43755;49.736;8.734;2023-06-19T09:42:13;97692.22;;;24.73;78.53
11448;BME280;43755;49.736;8.734;2023-06-19T09:44:16;97688.13;;;24.95;78.63
11448;BME280;43755;49.736;8.734;2023-06-19T09:46:26;97688.53;;;25.16;76.29
11448;BME280;43755;49.736;8.734;2023-06-19T09:48:29;97691.78;;;25.20;76.76
11448;BME280;43755;49.736;8.734;2023-06-19T09:50:32;97690.25;;;25.34;76.74
11448;BME280;43755;49.736;8.734;2023-06-19T09:52:34;97686.56;;;25.51;74.41
11448;BME280;43755;49.736;8.734;2023-06-19T09:54:36;97685.41;;;25.53;72.02
11448;BME280;43755;49.736;8.734;2023-06-19T09:56:39;97689.56;;;25.74;73.12
11448;BME280;43755;49.736;8.734;2023-06-19T09:58:42;97673.09;;;25.75;70.94
11448;BME280;43755;49.736;8.734;2023-06-19T10:00:44;97690.41;;;25.90;72.26
11448;BME280;43755;49.736;8.734;2023-06-19T10:02:48;97691.91;;;26.01;73.32
11448;BME280;43755;49.736;8.734;2023-06-19T10:04:52;97693.09;;;25.98;69.59
11448;BME280;43755;49.736;8.734;2023-06-19T10:06:55;97679.03;;;26.27;70.16
11448;BME280;43755;49.736;8.734;2023-06-19T10:09:06;97692.72;;;26.66;67.00
11448;BME280;43755;49.736;8.734;2023-06-19T10:11:07;97683.28;;;26.30;68.08
11448;BME280;43755;49.736;8.734;2023-06-19T10:13:13;97690.22;;;26.16;69.06
11448;BME280;43755;49.736;8.734;2023-06-19T10:15:16;97693.28;;;26.21;68.52
11448;BME280;43755;49.736;8.734;2023-06-19T10:17:18;97696.31;;;26.10;68.31
11448;BME280;43755;49.736;8.734;2023-06-19T10:19:22;97681.06;;;26.17;70.53
11448;BME280;43755;49.736;8.734;2023-06-19T10:21:24;97690.88;;;26.59;71.50
11448;BME280;43755;49.736;8.734;2023-06-19T10:23:25;97687.81;;;26.62;66.17
11448;BME280;43755;49.736;8.734;2023-06-19T10:25:30;97699.53;;;26.62;68.75
11448;BME280;43755;49.736;8.734;2023-06-19T10:27:38;97691.66;;;26.83;68.46
11448;BME280;43755;49.736;8.734;2023-06-19T10:29:40;97688.59;;;26.95;67.91
11448;BME280;43755;49.736;8.734;2023-06-19T10:31:42;97700.63;;;26.84;66.36
11448;BME280;43755;49.736;8.734;2023-06-19T10:33:44;97701.44;;;27.01;63.80
11448;BME280;43755;49.736;8.734;2023-06-19T10:35:47;97693.38;;;27.23;61.34
11448;BME280;43755;49.736;8.734;2023-06-19T10:37:48;97698.38;;;27.43;66.53
11448;BME280;43755;49.736;8.734;2023-06-19T10:39:50;97697.94;;;27.62;60.53
11448;BME280;43755;49.736;8.734;2023-06-19T10:41:51;97689.44;;;27.65;60.83
11448;BME280;43755;49.736;8.734;2023-06-19T10:43:54;97681.78;;;27.91;60.48
11448;BME280;43755;49.736;8.734;2023-06-19T10:45:57;97682.34;;;28.01;57.70